Flight Track Log - Related Links

Times and Time Zones

All times are in EDT time to prevent confusion due to time zone crossing. See the DAL3794 flight status page for this flight to view local times or setup timezone preferences in your user account.

Time Position Orientation Groundspeed Altitude Reporting Facility
EDT Latitude Longitude Course Direction KTS MPH feet Rate Location/Type
Thu 04:25:05 PM 42.1953 -83.3581 56° Northeast 169 194 1,500  Level Cleveland Center
Thu 04:25:54 PM 42.1536 -83.3533 175° South 202 232 3,300 2,172 Climbing Cleveland Center
Thu 04:27:01 PM 42.0917 -83.3367 169° South 252 290 5,700 2,203 Climbing Cleveland Center
Thu 04:28:00 PM 42.3092 -82.7574 78° East  Level FlightAware Approximate
Thu 04:28:02 PM 42.0878 -83.2328 93° East 295 339 8,000  Level Cleveland Center
Thu 04:29:00 PM 42.3324 -82.6062 78° East  Level FlightAware Approximate
Thu 04:29:22 PM 42.0975 -83.0794 85° East 318 366 10,000  Level Cleveland Center
Thu 04:30:00 PM 42.3620 -82.4594 56° Northeast  Level FlightAware Approximate
Thu 04:30:22 PM 42.1086 -82.9511 83° East 336 387 12,000  Level Cleveland Center
Thu 04:31:22 PM 42.1608 -82.8381 58° Northeast 341 392 13,700 1,500 Climbing Cleveland Center
Thu 04:32:22 PM 42.2083 -82.7500 54° Northeast 341 392 15,000 1,500 Climbing Cleveland Center
Thu 04:33:22 PM 42.2817 -82.6122 54° Northeast 364 419 16,700 1,550 Climbing Cleveland Center
Thu 04:34:22 PM 42.3464 -82.4936 54° Northeast 378 435 18,100 1,200 Climbing Cleveland Center
Thu 04:35:22 PM 42.3633 -82.3478 81° East 377 434 19,100 1,000 Climbing Cleveland Center
Thu 04:36:22 PM 42.3550 -82.1958 94° East 384 442 20,100 1,000 Climbing Cleveland Center
Thu 04:37:22 PM 42.3489 -82.0383 93° East 400 460 21,100 1,000 Climbing Cleveland Center
Thu 04:38:22 PM 42.3425 -81.8839 93° East 415 478 22,100 1,050 Climbing Cleveland Center
Thu 04:39:22 PM 42.3378 -81.7236 92° East 425 489 23,200 800 Climbing Cleveland Center
Thu 04:40:22 PM 42.3289 -81.5633 94° East 425 489 23,700 500 Climbing Cleveland Center
Thu 04:41:22 PM 42.3217 -81.4003 93° East 425 489 24,200 450 Climbing Cleveland Center
Thu 04:42:22 PM 42.3144 -81.2486 94° East 436 502 24,600 450 Climbing Cleveland Center
Thu 04:43:22 PM 42.3050 -81.0800 94° East 447 514 25,100 500 Climbing Cleveland Center
Thu 04:44:22 PM 42.2972 -80.9061 93° East 453 521 25,600 550 Climbing Cleveland Center
Thu 04:45:22 PM 42.2872 -80.7347 94° East 459 528 26,200 550 Climbing Cleveland Center
Thu 04:46:22 PM 42.2767 -80.5608 95° East 468 539 26,700 500 Climbing Cleveland Center
Thu 04:47:22 PM 42.2661 -80.3728 94° East 454 522 27,200 500 Climbing Cleveland Center
Thu 04:48:22 PM 42.2575 -80.1989 94° East 461 531 27,700 500 Climbing Cleveland Center
Thu 04:49:22 PM 42.2483 -80.0278 94° East 461 531 28,200 500 Climbing Cleveland Center
Thu 04:50:22 PM 42.2369 -79.8483 95° East 461 531 28,700 400 Climbing Cleveland Center
Thu 04:51:22 PM 42.2400 -79.6744 89° East 454 522 29,000 150 Climbing Cleveland Center
Thu 04:52:22 PM 42.2572 -79.5031 82° East 460 529 29,000  Level Cleveland Center
Thu 04:53:22 PM 42.2722 -79.3431 83° East 465 535 29,000  Level Cleveland Center
Thu 04:54:22 PM 42.2908 -79.1433 83° East 480 552 29,000  Level Cleveland Center
Thu 04:55:22 PM 42.3072 -78.9689 83° East 485 558 29,000  Level Cleveland Center
Thu 04:56:22 PM 42.3217 -78.8139 83° East 478 550 29,000  Level Cleveland Center
Thu 04:57:22 PM 42.3375 -78.6308 83° East 473 544 29,000  Level Cleveland Center
Thu 04:58:22 PM 42.3531 -78.4506 83° East 478 550 29,000  Level Cleveland Center
Thu 04:59:22 PM 42.3683 -78.2758 83° East 478 550 29,000  Level Cleveland Center
Thu 05:00:22 PM 42.3833 -78.0981 83° East 478 550 29,000  Level Cleveland Center
Thu 05:01:22 PM 42.4025 -77.9203 82° East 478 550 29,000  Level Cleveland Center
Thu 05:02:22 PM 42.4467 -77.7608 69° East 460 529 29,000  Level Cleveland Center
Thu 05:04:39 PM 42.5489 -77.3872 70° East 467 537 29,000  Level Boston Center
Thu 05:05:39 PM 42.5606 -77.2133 85° East 461 531 29,000  Level Boston Center
Thu 05:06:39 PM 42.5742 -77.0394 84° East 461 531 29,000  Level Boston Center
Thu 05:07:39 PM 42.5853 -76.8625 85° East 461 531 29,000  Level Boston Center
Thu 05:08:39 PM 42.5961 -76.6883 85° East 461 531 29,000  Level Boston Center
Thu 05:09:39 PM 42.6089 -76.5114 84° East 461 531 29,000  Level Boston Center
Thu 05:10:39 PM 42.6189 -76.3397 85° East 461 531 29,000  Level Boston Center
Thu 05:11:39 PM 42.6297 -76.1456 86° East 461 531 29,000 -50 Level Boston Center
Thu 05:12:39 PM 42.6394 -75.9711 86° East 461 531 28,900  Descending Boston Center
Thu 05:13:39 PM 42.6508 -75.7997 85° East 461 531 29,000 50 Climbing Boston Center
Thu 05:14:39 PM 42.6622 -75.6222 85° East 461 531 29,000  Level Boston Center
Thu 05:15:39 PM 42.6681 -75.4842 87° East 461 531 29,000  Level Boston Center
Thu 05:16:39 PM 42.6775 -75.2783 86° East 456 525 29,000  Level Boston Center
Thu 05:17:39 PM 42.6858 -75.1064 86° East 456 525 29,000  Level Boston Center
Thu 05:18:39 PM 42.6961 -74.9375 85° East 456 525 29,000  Level Boston Center
Thu 05:19:39 PM 42.7039 -74.7683 86° East 451 519 29,000  Level Boston Center
Thu 05:20:39 PM 42.7258 -74.5994 80° East 451 519 29,000 -100 Level Boston Center
Thu 05:21:39 PM 42.7619 -74.4508 72° East 451 519 28,800 -600 Descending Boston Center
Thu 05:22:39 PM 42.8042 -74.2881 70° East 451 519 27,800 -1,000 Descending Boston Center
Thu 05:23:39 PM 42.8361 -74.1247 75° East 451 519 26,800 -1,100 Descending Boston Center
Thu 05:24:39 PM 42.8425 -73.9550 87° East 446 513 25,600 -1,200 Descending Boston Center
Thu 05:25:39 PM 42.8342 -73.7906 94° East 441 507 24,400 -900 Descending Boston Center
Thu 05:26:39 PM 42.8358 -73.6603 89° East 436 502 23,800 -1,150 Descending Boston Center
Thu 05:27:39 PM 42.8314 -73.4650 92° East 431 496 22,100 -1,900 Descending Boston Center
Thu 05:28:39 PM 42.8264 -73.3092 92° East 424 488 20,000 -1,550 Descending Boston Center
Thu 05:29:39 PM 42.8211 -73.1561 93° East 413 475 19,000 -500 Descending Boston Center
Thu 05:30:39 PM 42.8158 -73.0089 93° East 397 457 19,000  Level Boston Center
Thu 05:31:39 PM 42.8206 -72.8647 87° East 385 443 19,000  Level Boston Center
Thu 05:32:39 PM 42.8356 -72.7175 82° East 385 443 19,000 -650 Level Boston Center
Thu 05:33:39 PM 42.8233 -72.5731 97° East 385 443 17,700 -1,800 Descending Boston Center
Thu 05:34:39 PM 42.8214 -72.4317 91° East 379 436 15,400 -2,300 Descending Boston Center
Thu 05:35:39 PM 42.8381 -72.2958 80° East 373 429 13,100 -2,250 Descending Boston Center
Thu 05:36:39 PM 42.8522 -72.1511 82° East 353 406 10,900 -1,650 Descending Boston Center
Thu 05:37:39 PM 42.8625 -72.0519 82° East 316 364 9,800 -1,600 Descending Boston Center
Thu 05:38:39 PM 42.8764 -71.9331 81° East 285 328 7,700 -1,900 Descending Boston Center
Thu 05:39:39 PM 42.8719 -71.8422 94° East 272 313 6,000 -2,050 Descending Boston Center
Thu 05:40:39 PM 42.8400 -71.7408 113° Southeast 260 299 3,600 -1,700 Descending Boston Center
Thu 05:41:39 PM 42.8167 -71.6675 113° Southeast 249 287 2,600 -700 Descending Boston Center
Thu 05:42:39 PM 42.8203 -71.5853 87° East 204 235 2,200 -400 Descending Boston Center

Login

Don't have an account? Register now (free) for customized features, flight alerts, and more!